Aviation Digital Data Service (ADDS)

Output produced by METARs form (0745 UTC 30 October 2020)
found at http://www.aviationweather.gov/metar/data/
 
Forecast for: ZSNB (NINGBO/LISHE , CN)
Text: TAF ZSNB 300302Z 3006/3106 02004MPS 5000 BR SCT030 TX23/3106Z TN12/3021Z
Forecast period: 0600 UTC 30 October 2020 to 0600 UTC 31 October 2020
Forecast type: FROM: standard forecast or significant change
Winds: from the NNE (20 degrees) at 9 MPH (8 knots; 4.1 m/s)
Visibility: 3 miles (5 km)
Ceiling: at least 12,000 feet AGL
Clouds: scattered clouds at 3000 feet AGL
Weather: BR  (mist)